Time;durP1;ratioP1;P1;durP2;ratioP2;P2;SDS_P1;SDS_P2;PMS_P1;PMS_P2;Temp;Humidity;BMP_temperature;BMP_pressure;BME280_temperature;BME280_humidity;BME280_pressure;Samples;Min_cycle;Max_cycle;Signal;HPM_P1;HPM_P2
2022/06/16 00:00:00;;;;;;;13.43;12.93;;;;;;;-141.02;100.00;55844.97;5134189;27;20666;-80
2022/06/16 00:02:27;;;;;;;13.18;12.77;;;;;;;-141.02;100.00;55844.97;5134290;27;20232;-79
2022/06/16 00:04:54;;;;;;;12.98;12.57;;;;;;;-141.02;100.00;55844.97;5134240;27;20192;-79
2022/06/16 00:07:23;;;;;;;12.70;12.30;;;;;;;-141.02;100.00;55844.97;5134154;27;20196;-80
2022/06/16 00:09:50;;;;;;;12.30;11.90;;;;;;;-141.02;100.00;55844.97;5133815;27;20189;-80
2022/06/16 00:12:17;;;;;;;11.73;11.32;;;;;;;-141.02;100.00;55844.97;5134023;27;20564;-80
2022/06/16 00:14:46;;;;;;;11.77;11.38;;;;;;;-141.02;100.00;55844.97;5133778;27;20260;-79
2022/06/16 00:17:13;;;;;;;11.60;11.20;;;;;;;-141.02;100.00;55844.97;5133628;27;20647;-80
2022/06/16 00:19:40;;;;;;;11.40;11.00;;;;;;;-141.02;100.00;55844.97;5133031;27;20615;-79
2022/06/16 00:22:07;;;;;;;11.90;11.50;;;;;;;-141.02;100.00;55844.97;5133660;27;20231;-80
2022/06/16 00:24:33;;;;;;;11.68;11.27;;;;;;;-141.02;100.00;55844.97;5133529;27;20228;-80
2022/06/16 00:27:00;;;;;;;12.02;11.63;;;;;;;-141.02;100.00;55844.97;5133872;27;20224;-79
2022/06/16 00:29:28;;;;;;;11.90;11.50;;;;;;;-141.02;100.00;55844.97;5133808;27;20228;-79
2022/06/16 00:31:57;;;;;;;11.10;10.80;;;;;;;-141.02;100.00;55844.97;5133739;27;20292;-80
2022/06/16 00:34:24;;;;;;;11.10;10.80;;;;;;;-141.02;100.00;55844.97;5133735;27;20283;-80
2022/06/16 00:36:51;;;;;;;10.80;10.50;;;;;;;-141.02;100.00;55844.97;5133355;27;20618;-80
2022/06/16 00:39:19;;;;;;;10.98;10.68;;;;;;;-141.02;100.00;55844.97;5133603;27;20330;-80
2022/06/16 00:41:46;;;;;;;11.10;10.80;;;;;;;-141.02;100.00;55844.97;5133581;27;20231;-80
2022/06/16 00:44:18;;;;;;;10.80;10.50;;;;;;;-141.02;100.00;55844.97;5133273;27;20227;-80
2022/06/16 00:46:45;;;;;;;10.60;10.30;;;;;;;-141.02;100.00;55844.97;5133533;27;20646;-80
2022/06/16 00:49:15;;;;;;;11.20;10.90;;;;;;;-141.02;100.00;55844.97;5133224;27;20189;-80
2022/06/16 00:51:45;;;;;;;10.90;10.60;;;;;;;-141.02;100.00;55844.97;5133083;27;20263;-80
2022/06/16 00:54:17;;;;;;;11.45;11.10;;;;;;;-141.02;100.00;55844.97;5134275;27;20247;-80
2022/06/16 00:56:44;;;;;;;11.30;11.00;;;;;;;-141.02;100.00;55844.97;5133453;27;20283;-80
2022/06/16 00:59:12;;;;;;;11.48;11.07;;;;;;;-141.02;100.00;55844.97;5133295;27;20235;-81
2022/06/16 01:01:42;;;;;;;11.25;10.93;;;;;;;-141.02;100.00;55844.97;5133101;27;20253;-80
2022/06/16 01:06:57;;;;;;;12.00;11.60;;;;;;;-141.02;100.00;55844.97;5133411;28;20260;-80
2022/06/16 01:09:29;;;;;;;12.20;11.80;;;;;;;-141.02;100.00;55844.97;5133258;27;20192;-80
2022/06/16 01:15:09;;;;;;;11.88;11.48;;;;;;;-141.02;100.00;55844.97;5133341;28;20272;-80
2022/06/16 01:17:48;;;;;;;12.15;11.75;;;;;;;-141.02;100.00;55844.97;5133019;27;20224;-80
2022/06/16 01:20:28;;;;;;;11.85;11.45;;;;;;;-141.02;100.00;55844.97;5133195;27;20212;-80
2022/06/16 01:23:26;;;;;;;11.20;10.90;;;;;;;-141.02;100.00;55844.97;5133180;27;20212;-80
2022/06/16 01:26:10;;;;;;;11.63;11.23;;;;;;;-141.02;100.00;55844.97;5132800;27;20287;-80
2022/06/16 01:29:01;;;;;;;12.20;11.80;;;;;;;-141.02;100.00;55844.97;5132847;27;20223;-80
2022/06/16 01:31:33;;;;;;;12.40;12.00;;;;;;;-141.02;100.00;55844.97;5134874;27;20224;-80
2022/06/16 01:34:09;;;;;;;12.00;11.60;;;;;;;-141.02;100.00;55844.97;5136935;27;20203;-80
2022/06/16 01:36:39;;;;;;;11.70;11.30;;;;;;;-141.02;100.00;55844.97;5136898;27;20238;-80
2022/06/16 01:39:12;;;;;;;12.38;11.98;;;;;;;-141.02;100.00;55844.97;5137107;27;20212;-80
2022/06/16 01:41:47;;;;;;;11.63;11.23;;;;;;;-141.02;100.00;55844.97;5137076;27;20188;-80
2022/06/16 01:44:19;;;;;;;11.85;11.45;;;;;;;-141.02;100.00;55844.97;5137376;27;20271;-80
2022/06/16 01:46:48;;;;;;;11.23;10.93;;;;;;;-141.02;100.00;55844.97;5136638;27;20715;-80
2022/06/16 01:49:22;;;;;;;10.82;10.52;;;;;;;-141.02;100.00;55844.97;5136890;27;20632;-80
2022/06/16 01:51:53;;;;;;;11.30;11.00;;;;;;;-141.02;100.00;55844.97;5136345;27;20705;-81
2022/06/16 01:54:25;;;;;;;11.30;11.00;;;;;;;-141.02;100.00;55844.97;5136792;27;20267;-80
2022/06/16 01:56:59;;;;;;;11.20;10.90;;;;;;;-141.02;100.00;55844.97;5136807;27;20212;-79
2022/06/16 01:59:33;;;;;;;10.80;10.50;;;;;;;-141.02;100.00;55844.97;5136691;27;20208;-79
2022/06/16 02:02:05;;;;;;;10.85;10.55;;;;;;;-141.02;100.00;55844.97;5136644;27;20189;-80
2022/06/16 02:04:38;;;;;;;10.60;10.30;;;;;;;-141.02;100.00;55844.97;5136311;27;20271;-80
2022/06/16 02:07:11;;;;;;;10.70;10.40;;;;;;;-141.02;100.00;55844.97;5136570;27;20243;-80
2022/06/16 02:09:42;;;;;;;10.18;9.88;;;;;;;-141.02;100.00;55844.97;5136285;27;20713;-80
2022/06/16 02:12:55;;;;;;;10.30;10.00;;;;;;;-141.02;100.00;55844.97;5136130;27;20701;-80
2022/06/16 02:15:10;;;;;;;10.90;10.60;;;;;;;-141.02;100.00;55844.97;5135997;27;20219;-80
2022/06/16 02:17:37;;;;;;;10.73;10.43;;;;;;;-141.02;100.00;55844.97;5136454;27;20189;-80
2022/06/16 02:20:05;;;;;;;11.25;10.85;;;;;;;-141.02;100.00;55844.97;5136221;27;20315;-80
2022/06/16 02:22:32;;;;;;;10.30;10.00;;;;;;;-141.02;100.00;55844.97;5136242;27;20639;-80
2022/06/16 02:24:59;;;;;;;10.32;10.02;;;;;;;-141.02;100.00;55844.97;5135917;27;20385;-80
2022/06/16 02:27:26;;;;;;;10.60;10.30;;;;;;;-141.02;100.00;55844.97;5136117;27;20568;-80
2022/06/16 02:29:54;;;;;;;10.68;10.38;;;;;;;-141.02;100.00;55844.97;5135878;27;20235;-79
2022/06/16 02:32:37;;;;;;;10.75;10.45;;;;;;;-141.02;100.00;55844.97;5135761;27;20195;-80
2022/06/16 02:35:16;;;;;;;10.80;10.50;;;;;;;-141.02;100.00;55844.97;5136083;27;20189;-80
2022/06/16 02:37:57;;;;;;;10.80;10.50;;;;;;;-141.02;100.00;55844.97;5135642;27;20637;-80
2022/06/16 02:40:46;;;;;;;10.57;10.27;;;;;;;-141.02;100.00;55844.97;5135595;27;20732;-80
2022/06/16 02:43:27;;;;;;;11.00;10.70;;;;;;;-141.02;100.00;55844.97;5134629;27;20664;-80
2022/06/16 02:46:03;;;;;;;10.70;10.40;;;;;;;-141.02;100.00;55844.97;5135832;27;20272;-81
2022/06/16 02:48:39;;;;;;;11.20;10.80;;;;;;;-141.02;100.00;55844.97;5135512;27;20192;-80
2022/06/16 02:51:12;;;;;;;11.27;10.88;;;;;;;-141.02;100.00;55844.97;5135384;27;20613;-81
2022/06/16 02:53:48;;;;;;;11.55;11.15;;;;;;;-141.02;100.00;55844.97;5135772;27;20193;-80
2022/06/16 02:56:24;;;;;;;11.60;11.20;;;;;;;-141.02;100.00;55844.97;5135394;27;20181;-80
2022/06/16 02:58:53;;;;;;;12.00;11.60;;;;;;;-141.02;100.00;55844.97;5135639;27;20192;-80
2022/06/16 03:01:21;;;;;;;12.30;11.90;;;;;;;-141.02;100.00;55844.97;5135453;27;20232;-80
2022/06/16 03:04:05;;;;;;;12.50;12.10;;;;;;;-141.02;100.00;55844.97;5135187;27;20192;-80
2022/06/16 03:06:32;;;;;;;11.20;10.90;;;;;;;-141.02;100.00;55844.97;5135474;27;20235;-80
2022/06/16 03:08:59;;;;;;;12.05;11.65;;;;;;;-141.02;100.00;55844.97;5135064;27;20203;-81
2022/06/16 03:11:27;;;;;;;12.10;11.70;;;;;;;-141.02;100.00;55844.97;5134979;27;20676;-80
2022/06/16 03:13:55;;;;;;;11.70;11.30;;;;;;;-141.02;100.00;55844.97;5135274;27;20335;-80
2022/06/16 03:16:22;;;;;;;11.40;11.00;;;;;;;-141.02;100.00;55844.97;5134892;27;20658;-80
2022/06/16 03:18:49;;;;;;;11.23;10.90;;;;;;;-141.02;100.00;55844.97;5135104;27;20200;-80
2022/06/16 03:21:18;;;;;;;11.60;11.20;;;;;;;-141.02;100.00;55844.97;5135073;27;20228;-80
2022/06/16 03:23:45;;;;;;;11.43;11.02;;;;;;;-141.02;100.00;55844.97;5135050;27;20197;-80
2022/06/16 03:26:13;;;;;;;10.80;10.50;;;;;;;-141.02;100.00;55844.97;5135043;27;20715;-80
2022/06/16 03:28:40;;;;;;;11.40;11.00;;;;;;;-141.02;100.00;55844.97;5134964;27;20569;-80
2022/06/16 03:31:07;;;;;;;10.93;10.63;;;;;;;-141.02;100.00;55844.97;5134607;27;20196;-80
2022/06/16 03:33:34;;;;;;;11.80;11.40;;;;;;;-141.02;100.00;55844.97;5134859;27;20276;-81
2022/06/16 03:36:01;;;;;;;12.13;11.73;;;;;;;-141.02;100.00;55844.97;5134474;27;20222;-80
2022/06/16 03:38:34;;;;;;;11.40;11.00;;;;;;;-141.02;100.00;55844.97;5134424;27;20683;-80
2022/06/16 03:41:00;;;;;;;11.93;11.52;;;;;;;-141.02;100.00;55844.97;5134409;27;20220;-80
2022/06/16 03:43:27;;;;;;;12.68;12.27;;;;;;;-141.02;100.00;55844.97;5134352;27;20284;-80
2022/06/16 03:45:55;;;;;;;12.70;12.30;;;;;;;-141.02;100.00;55844.97;5134265;27;20205;-81
2022/06/16 03:48:22;;;;;;;12.70;12.30;;;;;;;-141.02;100.00;55844.97;5134571;27;20271;-80
2022/06/16 03:50:49;;;;;;;12.45;12.05;;;;;;;-141.02;100.00;55844.97;5133954;27;20781;-80
2022/06/16 03:53:17;;;;;;;12.95;12.45;;;;;;;-141.02;100.00;55844.97;5134421;27;20224;-80
2022/06/16 03:55:46;;;;;;;13.20;12.70;;;;;;;-141.02;100.00;55844.97;5134323;27;20643;-80
2022/06/16 03:58:14;;;;;;;14.70;14.00;;;;;;;-141.02;100.00;55844.97;5134061;27;20228;-80
2022/06/16 04:00:42;;;;;;;16.45;15.45;;;;;;;-141.02;100.00;55844.97;5134202;27;20234;-80
2022/06/16 04:05:54;;;;;;;19.98;18.58;;;;;;;-141.02;100.00;55844.97;5133693;27;20195;-79
2022/06/16 04:08:21;;;;;;;19.27;18.08;;;;;;;-141.02;100.00;55844.97;5133881;27;20290;-80
2022/06/16 04:10:50;;;;;;;19.30;18.10;;;;;;;-141.02;100.00;55844.97;5134187;27;20281;-80
2022/06/16 04:13:17;;;;;;;19.23;18.02;;;;;;;-141.02;100.00;55844.97;5133826;27;20192;-80
2022/06/16 04:15:44;;;;;;;20.15;18.85;;;;;;;-141.02;100.00;55844.97;5134061;27;20228;-80
2022/06/16 04:18:12;;;;;;;19.98;18.67;;;;;;;-141.02;100.00;55844.97;5134002;27;20228;-80
2022/06/16 04:20:40;;;;;;;19.38;18.17;;;;;;;-141.02;100.00;55844.97;5133568;27;20232;-80
2022/06/16 04:23:11;;;;;;;17.92;16.92;;;;;;;-141.02;100.00;55844.97;5133851;27;20283;-80
2022/06/16 04:25:38;;;;;;;18.92;17.73;;;;;;;-141.02;100.00;55844.97;5133652;27;20634;-80
2022/06/16 04:28:08;;;;;;;19.02;17.83;;;;;;;-141.02;100.00;55844.97;5133525;27;20230;-81
2022/06/16 04:30:36;;;;;;;18.73;17.52;;;;;;;-141.02;100.00;55844.97;5133724;27;20196;-80
2022/06/16 04:33:04;;;;;;;18.75;17.65;;;;;;;-141.02;100.00;55844.97;5133453;27;20200;-80
2022/06/16 04:35:31;;;;;;;17.00;16.00;;;;;;;-141.02;100.00;55844.97;5133399;27;20197;-81
2022/06/16 04:37:58;;;;;;;17.10;16.10;;;;;;;-141.02;100.00;55844.97;5133614;27;20224;-80
2022/06/16 04:40:25;;;;;;;17.27;16.27;;;;;;;-141.02;100.00;55844.97;5133552;27;20235;-80
2022/06/16 04:42:52;;;;;;;17.33;16.33;;;;;;;-141.02;100.00;55844.97;5133194;27;20589;-81
2022/06/16 04:45:20;;;;;;;17.70;16.70;;;;;;;-141.02;100.00;55844.97;5133277;27;20565;-80
2022/06/16 04:47:47;;;;;;;17.73;16.73;;;;;;;-141.02;100.00;55844.97;5133515;27;20239;-80
2022/06/16 04:50:18;;;;;;;17.00;16.00;;;;;;;-141.02;100.00;55844.97;5132972;27;20587;-79
2022/06/16 04:52:46;;;;;;;16.40;15.50;;;;;;;-141.02;100.00;55844.97;5133223;27;20214;-80
2022/06/16 04:55:13;;;;;;;15.73;14.93;;;;;;;-141.02;100.00;55844.97;5133170;27;20718;-80
2022/06/16 04:57:41;;;;;;;16.35;15.45;;;;;;;-141.02;100.00;55844.97;5133465;27;20193;-80
2022/06/16 05:00:10;;;;;;;17.50;16.50;;;;;;;-141.02;100.00;55844.97;5132982;27;20767;-80
2022/06/16 05:02:39;;;;;;;17.52;16.52;;;;;;;-141.02;100.00;55844.97;5133378;27;20650;-81
2022/06/16 05:05:07;;;;;;;17.10;16.10;;;;;;;-141.02;100.00;55844.97;5132984;27;20188;-79
2022/06/16 05:07:34;;;;;;;18.15;17.08;;;;;;;-141.02;100.00;55844.97;5132855;27;20196;-80
2022/06/16 05:10:02;;;;;;;17.42;16.42;;;;;;;-141.02;100.00;55844.97;5133304;27;20723;-80
2022/06/16 05:12:29;;;;;;;17.85;16.85;;;;;;;-141.02;100.00;55844.97;5133256;27;20291;-80
2022/06/16 05:14:56;;;;;;;17.60;16.60;;;;;;;-141.02;100.00;55844.97;5133246;27;20233;-79
2022/06/16 05:17:23;;;;;;;17.75;16.75;;;;;;;-141.02;100.00;55844.97;5132710;27;20226;-80
2022/06/16 05:19:51;;;;;;;18.80;17.70;;;;;;;-141.02;100.00;55844.97;5133350;27;20624;-80
2022/06/16 05:22:19;;;;;;;17.17;16.20;;;;;;;-141.02;100.00;55844.97;5132850;27;20238;-79
2022/06/16 05:24:46;;;;;;;18.75;17.65;;;;;;;-141.02;100.00;55844.97;5132808;27;20283;-80
2022/06/16 05:27:13;;;;;;;19.15;18.05;;;;;;;-141.02;100.00;55844.97;5132786;27;20231;-79
2022/06/16 05:29:40;;;;;;;18.85;17.73;;;;;;;-141.02;100.00;55844.97;5133345;27;20200;-79
2022/06/16 05:32:08;;;;;;;18.42;17.33;;;;;;;-141.02;100.00;55844.97;5133002;27;20701;-78
2022/06/16 05:34:36;;;;;;;18.10;17.00;;;;;;;-141.02;100.00;55844.97;5133037;27;20295;-79
2022/06/16 05:37:05;;;;;;;16.83;15.93;;;;;;;-141.02;100.00;55844.97;5133352;27;20250;-79
2022/06/16 05:39:32;;;;;;;16.98;16.08;;;;;;;-141.02;100.00;55844.97;5132968;27;20224;-78
2022/06/16 05:41:59;;;;;;;16.88;15.90;;;;;;;-141.02;100.00;55844.97;5132639;27;20220;-79
2022/06/16 05:44:27;;;;;;;17.20;16.20;;;;;;;-141.02;100.00;55844.97;5133246;27;20200;-79
2022/06/16 05:46:54;;;;;;;17.95;16.95;;;;;;;-141.02;100.00;55844.97;5132863;27;20188;-79
2022/06/16 05:49:21;;;;;;;18.48;17.48;;;;;;;-141.02;100.00;55844.97;5132944;27;20247;-78
2022/06/16 05:51:48;;;;;;;19.00;17.90;;;;;;;-141.02;100.00;55844.97;5132331;27;20235;-78
2022/06/16 05:54:17;;;;;;;18.38;17.27;;;;;;;-141.02;100.00;55844.97;5132585;27;20193;-78
2022/06/16 05:56:44;;;;;;;26.77;24.67;;;;;;;-141.02;100.00;55844.97;5132856;27;20275;-77
2022/06/16 05:59:11;;;;;;;17.48;16.48;;;;;;;-141.02;100.00;55844.97;5133084;27;20196;-78
2022/06/16 06:01:39;;;;;;;17.55;16.55;;;;;;;-141.02;100.00;55844.97;5132771;27;20285;-76
2022/06/16 06:04:06;;;;;;;17.45;16.45;;;;;;;-141.02;100.00;55844.97;5132401;27;20193;-76
2022/06/16 06:06:33;;;;;;;17.50;16.55;;;;;;;-141.02;100.00;55844.97;5132786;27;20189;-76
2022/06/16 06:17:20;;;;;;;17.80;16.80;;;;;;;-141.02;100.00;55844.97;5132469;27;20184;-77
2022/06/16 06:19:47;;;;;;;17.67;16.67;;;;;;;-141.02;100.00;55844.97;5136041;27;20562;-78
2022/06/16 06:22:17;;;;;;;18.17;17.17;;;;;;;-141.02;100.00;55844.97;5136247;27;20224;-78
2022/06/16 06:24:46;;;;;;;18.50;17.50;;;;;;;-141.02;100.00;55844.97;5135920;27;20192;-77
2022/06/16 06:27:16;;;;;;;17.63;16.63;;;;;;;-141.02;100.00;55844.97;5135852;27;20227;-77
2022/06/16 06:29:44;;;;;;;18.40;17.40;;;;;;;-141.02;100.00;55844.97;5135921;27;20634;-78
2022/06/16 06:32:12;;;;;;;18.60;17.60;;;;;;;-141.02;100.00;55844.97;5136126;27;20646;-78
2022/06/16 06:34:40;;;;;;;18.67;17.65;;;;;;;-141.02;100.00;55844.97;5135725;27;20247;-77
2022/06/16 06:37:07;;;;;;;18.92;17.83;;;;;;;-141.02;100.00;55844.97;5136050;27;20199;-76
2022/06/16 06:39:35;;;;;;;19.13;18.02;;;;;;;-141.02;100.00;55844.97;5135618;27;20203;-77
2022/06/16 06:42:03;;;;;;;18.50;17.50;;;;;;;-141.02;100.00;55844.97;5135873;27;20672;-80
2022/06/16 06:44:33;;;;;;;19.05;17.95;;;;;;;-141.02;100.00;55844.97;5135753;27;20204;-78
2022/06/16 06:47:01;;;;;;;19.00;17.90;;;;;;;-141.02;100.00;55844.97;5135805;27;20196;-78
2022/06/16 06:49:28;;;;;;;18.63;17.52;;;;;;;-141.02;100.00;55844.97;5135762;27;20223;-77
2022/06/16 06:51:55;;;;;;;19.00;17.90;;;;;;;-141.02;100.00;55844.97;5135256;27;20228;-77
2022/06/16 06:54:23;;;;;;;19.67;18.50;;;;;;;-141.02;100.00;55844.97;5135430;27;20254;-77
2022/06/16 06:56:52;;;;;;;19.70;18.50;;;;;;;-141.02;100.00;55844.97;5135297;27;20232;-77
